createdAt,value
2022-08-29T00:00:23.275Z,99.99
2022-08-29T00:01:18.718Z,99.99
2022-08-29T00:02:19.228Z,99.99
2022-08-29T00:03:19.231Z,99.99
2022-08-29T00:04:19.983Z,99.99
2022-08-29T00:05:22.312Z,99.99
2022-08-29T00:06:21.365Z,99.99
2022-08-29T00:07:21.591Z,99.99
2022-08-29T00:08:21.793Z,99.99
2022-08-29T00:09:24.476Z,99.99
2022-08-29T00:10:22.761Z,99.99
2022-08-29T00:11:23.713Z,99.99
2022-08-29T00:12:23.631Z,99.99
2022-08-29T00:13:23.950Z,99.99
2022-08-29T00:14:28.800Z,99.99
2022-08-29T00:15:25.290Z,99.99
2022-08-29T00:16:26.024Z,99.99
2022-08-29T00:17:25.921Z,99.99
2022-08-29T00:18:26.111Z,99.99
2022-08-29T00:19:27.454Z,99.99
2022-08-29T00:20:39.402Z,99.99
2022-08-29T00:21:28.352Z,99.99
2022-08-29T00:22:28.845Z,99.99
2022-08-29T00:23:29.043Z,99.99
2022-08-29T00:24:29.240Z,99.99
2022-08-29T00:25:30.186Z,99.99
2022-08-29T00:26:31.802Z,99.99
2022-08-29T00:27:31.301Z,99.99
2022-08-29T00:28:31.682Z,99.99
2022-08-29T00:29:31.605Z,99.99
2022-08-29T00:30:32.194Z,99.99
2022-08-29T00:31:32.538Z,99.99
2022-08-29T00:32:32.415Z,99.99
2022-08-29T00:33:33.609Z,99.99
2022-08-29T00:34:33.633Z,99.99
2022-08-29T00:35:36.426Z,99.99
2022-08-29T00:36:36.059Z,99.99
2022-08-29T00:37:36.321Z,99.99
2022-08-29T00:38:36.204Z,99.99
2022-08-29T00:39:38.443Z,99.99
2022-08-29T00:40:37.244Z,99.99
2022-08-29T00:41:37.325Z,99.99
2022-08-29T00:42:37.961Z,99.99
2022-08-29T00:43:38.581Z,99.99
2022-08-29T00:44:38.773Z,99.99
2022-08-29T00:45:39.150Z,99.99
2022-08-29T00:46:39.575Z,99.99
2022-08-29T00:47:40.197Z,99.99
2022-08-29T00:48:40.421Z,99.99
2022-08-29T00:49:40.381Z,99.99
2022-08-29T00:50:41.407Z,99.99
2022-08-29T00:51:42.040Z,99.99
2022-08-29T00:52:42.954Z,99.99
2022-08-29T00:53:44.146Z,99.99
2022-08-29T00:54:44.063Z,99.99
2022-08-29T00:55:44.252Z,99.99
2022-08-29T00:56:45.384Z,99.99
2022-08-29T00:57:46.000Z,99.99
2022-08-29T00:58:46.925Z,99.99
2022-08-29T00:59:47.420Z,99.99
2022-08-29T01:00:48.598Z,99.99
2022-08-29T01:01:49.531Z,99.99
2022-08-29T01:02:50.109Z,99.99
2022-08-29T01:03:50.298Z,99.99
2022-08-29T01:04:51.218Z,99.99
2022-08-29T01:05:51.839Z,99.99
2022-08-29T01:06:52.475Z,99.99
2022-08-29T01:07:52.374Z,99.99
2022-08-29T01:09:02.581Z,99.99
2022-08-29T01:09:54.075Z,99.99
2022-08-29T01:10:54.571Z,99.99
2022-08-29T01:11:55.468Z,99.99
2022-08-29T01:12:56.381Z,99.99
2022-08-29T01:13:57.317Z,99.99
2022-08-29T01:14:57.316Z,99.99
2022-08-29T01:15:58.487Z,99.99
2022-08-29T01:16:58.746Z,99.99
2022-08-29T01:17:58.961Z,99.99
2022-08-29T01:18:58.946Z,99.99
2022-08-29T01:19:59.589Z,99.99
2022-08-29T01:21:00.310Z,99.99
2022-08-29T01:22:00.240Z,99.99
2022-08-29T01:23:01.141Z,99.99
2022-08-29T01:24:01.060Z,99.99
2022-08-29T01:25:02.393Z,99.99
2022-08-29T01:26:02.581Z,99.99
2022-08-29T01:27:02.495Z,99.99
2022-08-29T01:28:02.989Z,99.99
2022-08-29T01:29:03.781Z,99.99
2022-08-29T01:30:04.277Z,99.99
2022-08-29T01:31:04.999Z,99.99
2022-08-29T01:32:05.819Z,99.99
2022-08-29T01:33:06.207Z,99.99
2022-08-29T01:34:06.686Z,99.99
2022-08-29T01:35:06.594Z,99.99
2022-08-29T01:36:07.083Z,99.99
2022-08-29T01:37:07.016Z,99.99
2022-08-29T01:38:07.961Z,99.99
2022-08-29T01:39:08.844Z,99.99
2022-08-29T01:40:09.933Z,99.99
2022-08-29T01:41:09.905Z,99.99
2022-08-29T01:42:10.243Z,99.99
2022-08-29T01:43:11.162Z,99.99
2022-08-29T01:44:11.778Z,99.99
2022-08-29T01:45:15.233Z,99.99
2022-08-29T01:46:13.732Z,99.99
2022-08-29T01:47:13.762Z,99.99
2022-08-29T01:48:14.529Z,99.99
2022-08-29T01:49:14.717Z,99.99
2022-08-29T01:50:15.374Z,99.99
2022-08-29T01:51:16.390Z,99.99
2022-08-29T01:52:16.305Z,99.99
2022-08-29T01:53:18.874Z,99.99
2022-08-29T01:54:17.065Z,99.99
2022-08-29T01:55:18.248Z,99.99
2022-08-29T01:56:18.664Z,99.99
2022-08-29T01:57:19.584Z,99.99
2022-08-29T01:58:20.726Z,99.99
2022-08-29T01:59:20.644Z,99.99
2022-08-29T02:00:21.264Z,99.99
2022-08-29T02:01:22.750Z,99.99
2022-08-29T02:02:23.374Z,99.99
2022-08-29T02:03:24.368Z,99.99
2022-08-29T02:04:25.303Z,99.99
2022-08-29T02:05:25.929Z,99.99
2022-08-29T02:06:26.847Z,99.99
2022-08-29T02:07:27.336Z,99.99
2022-08-29T02:08:27.676Z,99.99
2022-08-29T02:09:30.299Z,99.99
2022-08-29T02:10:29.033Z,99.99
2022-08-29T02:11:29.324Z,99.99
2022-08-29T02:12:29.520Z,99.99
2022-08-29T02:13:30.713Z,99.99
2022-08-29T02:14:31.328Z,99.99
2022-08-29T02:15:31.617Z,99.99
2022-08-29T02:16:32.625Z,99.99
2022-08-29T02:17:32.799Z,99.99
2022-08-29T02:18:32.997Z,99.99
2022-08-29T02:19:33.905Z,99.99
2022-08-29T02:20:34.395Z,99.99
2022-08-29T02:21:34.995Z,99.99
2022-08-29T02:22:37.791Z,99.99
2022-08-29T02:23:36.882Z,99.99
2022-08-29T02:24:36.779Z,99.99
2022-08-29T02:25:37.674Z,99.99
2022-08-29T02:26:38.596Z,99.99
2022-08-29T02:27:39.523Z,99.99
2022-08-29T02:28:40.148Z,99.99
2022-08-29T02:29:43.595Z,99.99
2022-08-29T02:30:42.097Z,99.99
2022-08-29T02:31:42.267Z,99.99
2022-08-29T02:32:43.228Z,99.99
2022-08-29T02:33:43.434Z,99.99
2022-08-29T02:34:44.400Z,99.99
2022-08-29T02:35:48.361Z,99.99
2022-08-29T02:36:49.031Z,99.99
2022-08-29T02:37:45.359Z,99.99
2022-08-29T02:38:46.597Z,99.99
2022-08-29T02:39:46.487Z,99.99
2022-08-29T02:40:47.535Z,99.99
2022-08-29T02:41:49.714Z,99.99
2022-08-29T02:42:47.636Z,99.99
2022-08-29T02:43:48.699Z,99.99
2022-08-29T02:44:48.893Z,99.99
2022-08-29T02:45:49.509Z,99.99
2022-08-29T02:46:50.303Z,99.99
2022-08-29T02:47:50.576Z,99.99
2022-08-29T02:49:05.983Z,99.99
2022-08-29T02:49:54.063Z,99.99
2022-08-29T02:50:51.978Z,99.99
2022-08-29T02:51:53.002Z,99.99
2022-08-29T02:52:52.918Z,99.99
2022-08-29T02:53:53.830Z,99.99
2022-08-29T02:54:54.474Z,99.99
2022-08-29T02:55:55.390Z,99.99
2022-08-29T02:56:55.896Z,99.99
2022-08-29T02:57:56.493Z,99.99
2022-08-29T02:58:57.162Z,99.99
2022-08-29T02:59:57.370Z,99.99
2022-08-29T03:00:57.941Z,99.99
2022-08-29T03:01:58.543Z,99.99
2022-08-29T03:02:58.757Z,99.99
2022-08-29T03:03:59.245Z,99.99
2022-08-29T03:04:59.866Z,99.99
2022-08-29T03:06:00.251Z,99.99
2022-08-29T03:07:01.175Z,99.99
2022-08-29T03:08:01.674Z,99.99
2022-08-29T03:09:02.218Z,99.99
2022-08-29T03:10:02.417Z,99.99
2022-08-29T03:11:03.043Z,99.99
2022-08-29T03:12:03.936Z,99.99
2022-08-29T03:13:03.858Z,99.99
2022-08-29T03:14:04.497Z,99.99
2022-08-29T03:15:04.880Z,99.99
2022-08-29T03:16:06.650Z,99.99
2022-08-29T03:17:05.769Z,99.99
2022-08-29T03:18:06.775Z,99.99
2022-08-29T03:19:07.402Z,99.99
2022-08-29T03:20:08.022Z,99.99
2022-08-29T03:21:09.238Z,99.99
2022-08-29T03:22:09.939Z,99.99
2022-08-29T03:23:11.181Z,99.99
2022-08-29T03:24:11.674Z,99.99
2022-08-29T03:25:12.012Z,99.99
2022-08-29T03:26:12.634Z,99.99
2022-08-29T03:27:12.551Z,99.99
2022-08-29T03:28:14.001Z,99.99
2022-08-29T03:29:14.120Z,99.99
2022-08-29T03:30:16.116Z,99.99
2022-08-29T03:31:15.530Z,99.99
2022-08-29T03:32:15.910Z,99.99
2022-08-29T03:33:17.411Z,99.99
2022-08-29T03:34:17.601Z,99.99
2022-08-29T03:35:18.098Z,99.99
2022-08-29T03:36:19.713Z,99.99
2022-08-29T03:37:19.204Z,99.99
2022-08-29T03:38:20.306Z,99.99
2022-08-29T03:39:20.516Z,99.99
2022-08-29T03:40:20.635Z,99.99
2022-08-29T03:41:21.564Z,99.99
2022-08-29T03:42:21.864Z,99.99
2022-08-29T03:43:23.742Z,99.99
2022-08-29T03:44:22.343Z,99.99
2022-08-29T03:45:22.475Z,99.99
2022-08-29T03:46:23.077Z,99.99
2022-08-29T03:47:23.566Z,99.99
2022-08-29T03:48:23.483Z,99.99
2022-08-29T03:49:24.670Z,99.99
2022-08-29T03:50:24.644Z,99.99
2022-08-29T03:51:28.693Z,99.99
2022-08-29T03:52:26.145Z,99.99
2022-08-29T03:53:26.072Z,99.99
2022-08-29T03:54:26.381Z,99.99
2022-08-29T03:55:27.328Z,99.99
2022-08-29T03:56:27.526Z,99.99
2022-08-29T03:57:28.443Z,99.99
2022-08-29T03:58:28.902Z,99.99
2022-08-29T03:59:29.120Z,99.99
2022-08-29T04:00:29.319Z,99.99
2022-08-29T04:01:29.994Z,99.99
2022-08-29T04:02:30.804Z,99.99
2022-08-29T04:03:36.717Z,99.99
2022-08-29T04:04:31.658Z,99.99
2022-08-29T04:05:32.500Z,99.99
2022-08-29T04:06:33.420Z,99.99
2022-08-29T04:07:33.905Z,99.99
2022-08-29T04:08:34.826Z,99.99
2022-08-29T04:09:35.026Z,99.99
2022-08-29T04:10:36.230Z,99.99
2022-08-29T04:11:36.583Z,99.99
2022-08-29T04:12:37.024Z,99.99
2022-08-29T04:13:37.391Z,99.99
2022-08-29T04:14:37.613Z,99.99
2022-08-29T04:15:38.109Z,99.99
2022-08-29T04:16:38.704Z,99.99
2022-08-29T04:17:38.348Z,99.99
2022-08-29T04:18:38.853Z,99.99
2022-08-29T04:19:38.748Z,99.99
2022-08-29T04:20:39.952Z,99.99
2022-08-29T04:21:40.864Z,99.99
2022-08-29T04:22:42.175Z,99.99
2022-08-29T04:23:42.394Z,99.99
2022-08-29T04:24:42.720Z,99.99
2022-08-29T04:25:43.402Z,99.99
2022-08-29T04:26:43.318Z,99.99
2022-08-29T04:27:43.802Z,99.99
2022-08-29T04:28:44.829Z,99.99
2022-08-29T04:29:45.321Z,99.99
2022-08-29T04:30:48.662Z,99.99
2022-08-29T04:31:46.407Z,99.99
2022-08-29T04:32:46.403Z,99.99
2022-08-29T04:33:47.025Z,99.99
2022-08-29T04:34:47.958Z,99.99
2022-08-29T04:35:48.453Z,99.99
2022-08-29T04:36:49.346Z,99.99
2022-08-29T04:37:49.503Z,99.99
2022-08-29T04:38:50.132Z,99.99
2022-08-29T04:39:50.632Z,99.99
2022-08-29T04:40:51.698Z,99.99
2022-08-29T04:41:52.318Z,99.99
2022-08-29T04:42:53.040Z,99.99
2022-08-29T04:43:52.957Z,99.99
2022-08-29T04:44:53.878Z,99.99
2022-08-29T04:45:54.839Z,99.99
2022-08-29T04:46:55.404Z,99.99
2022-08-29T04:47:55.709Z,99.99
2022-08-29T04:48:58.494Z,99.99
2022-08-29T04:50:00.724Z,99.99
2022-08-29T04:50:57.644Z,99.99
2022-08-29T04:51:57.849Z,99.99
2022-08-29T04:52:58.275Z,99.99
2022-08-29T04:53:59.504Z,99.99
2022-08-29T04:55:00.124Z,99.99
2022-08-29T04:56:01.740Z,99.99
2022-08-29T04:57:02.841Z,99.99
2022-08-29T04:58:03.619Z,99.99
2022-08-29T04:59:02.475Z,99.99
2022-08-29T05:00:03.665Z,99.99
2022-08-29T05:01:03.070Z,99.99
2022-08-29T05:02:03.696Z,99.99
2022-08-29T05:03:04.197Z,99.99
2022-08-29T05:04:05.508Z,99.99
2022-08-29T05:05:05.717Z,99.99
2022-08-29T05:06:05.916Z,99.99
2022-08-29T05:07:06.840Z,99.99
2022-08-29T05:08:07.752Z,99.99
2022-08-29T05:09:07.979Z,99.99
2022-08-29T05:10:08.475Z,99.99
2022-08-29T05:11:09.097Z,99.99
2022-08-29T05:12:15.501Z,99.99
2022-08-29T05:13:10.527Z,99.99
2022-08-29T05:14:11.171Z,99.99
2022-08-29T05:15:11.781Z,99.99
2022-08-29T05:16:13.076Z,99.99
2022-08-29T05:17:13.135Z,99.99
2022-08-29T05:18:14.162Z,99.99
2022-08-29T05:19:16.072Z,99.99
2022-08-29T05:20:15.040Z,99.99
2022-08-29T05:21:15.665Z,99.99
2022-08-29T05:22:16.882Z,99.99
2022-08-29T05:23:21.192Z,99.99
2022-08-29T05:24:18.412Z,99.99
2022-08-29T05:25:23.338Z,99.99
2022-08-29T05:26:18.757Z,99.99
2022-08-29T05:27:19.396Z,99.99
2022-08-29T05:28:20.211Z,99.99
2022-08-29T05:29:21.114Z,99.99
2022-08-29T05:30:39.884Z,99.99
2022-08-29T05:31:23.186Z,99.99
2022-08-29T05:32:23.327Z,99.99
2022-08-29T05:33:24.639Z,99.99
2022-08-29T05:34:40.474Z,99.99
2022-08-29T05:35:26.094Z,99.99
2022-08-29T05:36:26.469Z,99.99
2022-08-29T05:37:26.648Z,99.99
2022-08-29T05:38:27.569Z,99.99
2022-08-29T05:39:28.496Z,99.99
2022-08-29T05:40:29.562Z,99.99
2022-08-29T05:41:29.708Z,99.99
2022-08-29T05:42:30.492Z,99.99
2022-08-29T05:43:30.664Z,99.99
2022-08-29T05:44:34.870Z,99.99
2022-08-29T05:45:31.138Z,99.99
2022-08-29T05:46:31.817Z,99.99
2022-08-29T05:47:32.384Z,99.99
2022-08-29T05:48:33.008Z,99.99
2022-08-29T05:49:33.622Z,99.99
2022-08-29T05:50:33.823Z,99.99
2022-08-29T05:51:38.901Z,99.99
2022-08-29T05:52:34.922Z,99.99
2022-08-29T05:53:36.075Z,99.99
2022-08-29T05:54:36.275Z,99.99
2022-08-29T05:55:36.765Z,99.99
2022-08-29T05:56:37.382Z,99.99
2022-08-29T05:57:38.057Z,99.99
2022-08-29T05:58:38.995Z,99.99
2022-08-29T05:59:38.915Z,99.99
2022-08-29T06:00:40.150Z,99.99
2022-08-29T06:01:41.520Z,99.99
2022-08-29T06:02:41.394Z,99.99
2022-08-29T06:03:45.882Z,99.99
2022-08-29T06:04:42.231Z,99.99
2022-08-29T06:05:42.574Z,99.99
2022-08-29T06:06:43.199Z,99.99
2022-08-29T06:07:43.692Z,99.99
2022-08-29T06:08:43.888Z,99.99
2022-08-29T06:09:45.097Z,99.99
2022-08-29T06:10:46.156Z,99.99
2022-08-29T06:11:46.395Z,99.99
2022-08-29T06:12:46.597Z,99.99
2022-08-29T06:13:47.310Z,99.99
2022-08-29T06:14:55.700Z,99.99
2022-08-29T06:15:48.425Z,99.99
2022-08-29T06:16:49.001Z,99.99
2022-08-29T06:17:49.901Z,99.99
2022-08-29T06:18:50.548Z,99.99
2022-08-29T06:19:51.490Z,99.99
2022-08-29T06:20:51.687Z,99.99
2022-08-29T06:21:52.213Z,99.99
2022-08-29T06:22:52.646Z,99.99
2022-08-29T06:23:53.670Z,99.99
2022-08-29T06:24:54.284Z,99.99
2022-08-29T06:25:54.135Z,99.99
2022-08-29T06:26:54.753Z,99.99
2022-08-29T06:27:54.993Z,99.99
2022-08-29T06:28:55.943Z,99.99
2022-08-29T06:29:59.101Z,99.99
2022-08-29T06:30:57.670Z,99.99
2022-08-29T06:31:57.229Z,99.99
2022-08-29T06:32:57.445Z,99.99
2022-08-29T06:33:58.462Z,99.99
2022-08-29T06:34:59.387Z,99.99
2022-08-29T06:35:59.292Z,99.99
2022-08-29T06:37:00.514Z,99.99
2022-08-29T06:38:01.163Z,99.99
2022-08-29T06:39:02.195Z,99.99
2022-08-29T06:40:03.196Z,99.99
2022-08-29T06:41:03.949Z,99.99
2022-08-29T06:42:04.879Z,99.99
2022-08-29T06:43:05.507Z,99.99
2022-08-29T06:44:06.815Z,99.99
2022-08-29T06:45:07.484Z,99.99
2022-08-29T06:46:08.533Z,99.99
2022-08-29T06:47:09.220Z,99.99
2022-08-29T06:48:10.133Z,99.99
2022-08-29T06:49:10.724Z,99.99
2022-08-29T06:50:11.799Z,99.99
2022-08-29T06:51:12.456Z,99.99
2022-08-29T06:52:13.533Z,99.99
2022-08-29T06:54:26.792Z,99.99
2022-08-29T06:55:29.421Z,99.99
2022-08-29T06:56:26.322Z,99.99
2022-08-29T06:57:26.508Z,99.99
2022-08-29T06:58:27.012Z,99.99
2022-08-29T06:59:27.640Z,99.99
2022-08-29T07:00:28.290Z,99.99
2022-08-29T07:01:28.723Z,99.99
2022-08-29T07:02:29.777Z,99.99
2022-08-29T07:03:29.403Z,99.99
2022-08-29T07:04:32.316Z,99.99
2022-08-29T07:05:30.084Z,99.99
2022-08-29T07:06:31.032Z,99.99
2022-08-29T07:07:31.965Z,99.99
2022-08-29T07:08:32.560Z,99.99
2022-08-29T07:09:33.003Z,99.99
2022-08-29T07:10:34.210Z,99.99
2022-08-29T07:11:37.735Z,99.99
2022-08-29T07:12:36.696Z,99.99
2022-08-29T07:13:35.590Z,99.99
2022-08-29T07:14:36.585Z,99.99
2022-08-29T07:15:37.719Z,99.99
2022-08-29T07:16:38.363Z,99.99
2022-08-29T07:17:38.582Z,99.99
2022-08-29T07:18:39.928Z,99.99
2022-08-29T07:19:39.834Z,99.99
2022-08-29T07:20:39.955Z,99.99
2022-08-29T07:21:41.171Z,99.99
2022-08-29T07:22:41.798Z,99.99
2022-08-29T07:23:41.719Z,99.99
2022-08-29T07:24:42.020Z,99.99
2022-08-29T07:25:42.656Z,99.99
2022-08-29T07:26:43.877Z,99.99
2022-08-29T07:27:44.083Z,99.99
2022-08-29T07:28:49.852Z,99.99
2022-08-29T07:29:48.818Z,99.99
2022-08-29T07:30:45.766Z,99.99
2022-08-29T07:31:45.688Z,99.99
2022-08-29T07:32:46.888Z,99.99
2022-08-29T07:33:47.125Z,99.99
2022-08-29T07:34:51.797Z,99.99
2022-08-29T07:35:50.375Z,99.99
2022-08-29T07:36:50.229Z,99.99
2022-08-29T07:37:56.175Z,99.99
2022-08-29T07:38:52.417Z,99.99
2022-08-29T07:39:53.048Z,99.99
2022-08-29T07:40:54.096Z,99.99
2022-08-29T07:41:54.480Z,99.99
2022-08-29T07:42:54.710Z,99.99
2022-08-29T07:43:54.929Z,99.99
2022-08-29T07:44:55.643Z,99.99
2022-08-29T07:45:57.826Z,99.99
2022-08-29T07:46:57.002Z,99.99
2022-08-29T07:50:01.994Z,99.99
2022-08-29T07:50:59.894Z,99.99
2022-08-29T07:52:00.592Z,99.99
2022-08-29T07:53:01.494Z,99.99
2022-08-29T07:54:01.702Z,99.99
2022-08-29T07:55:02.797Z,99.99
2022-08-29T07:56:03.300Z,99.99
2022-08-29T07:57:03.953Z,99.99
2022-08-29T07:58:04.153Z,99.99
2022-08-29T07:59:03.974Z,99.99
2022-08-29T08:02:06.522Z,99.99
2022-08-29T08:06:12.555Z,99.99
2022-08-29T08:07:10.439Z,99.99
2022-08-29T08:08:16.678Z,99.99
2022-08-29T08:09:09.777Z,99.99
2022-08-29T08:10:10.113Z,99.99
2022-08-29T08:11:10.326Z,99.99
2022-08-29T08:12:13.870Z,99.99
2022-08-29T08:13:11.593Z,99.99
2022-08-29T08:14:12.851Z,99.99
2022-08-29T08:15:13.718Z,99.99
2022-08-29T08:16:14.474Z,99.99
2022-08-29T08:17:15.601Z,99.99
2022-08-29T08:18:16.052Z,99.99
2022-08-29T08:19:16.373Z,99.99
2022-08-29T08:20:16.878Z,99.99
2022-08-29T08:21:17.321Z,99.99
2022-08-29T08:22:18.018Z,99.99
2022-08-29T08:23:20.569Z,99.99
2022-08-29T08:24:24.676Z,99.99
2022-08-29T08:25:19.755Z,99.99
2022-08-29T08:26:19.614Z,99.99
2022-08-29T08:27:20.262Z,99.99
2022-08-29T08:28:20.704Z,99.99
2022-08-29T08:29:21.609Z,99.99
2022-08-29T08:30:22.237Z,99.99
2022-08-29T08:31:23.282Z,99.99
2022-08-29T08:32:24.075Z,99.99
2022-08-29T08:33:23.911Z,99.99
2022-08-29T08:34:24.728Z,99.99
2022-08-29T08:35:27.872Z,99.99
2022-08-29T08:36:25.603Z,99.99
2022-08-29T08:37:33.328Z,99.99
2022-08-29T08:38:27.556Z,99.99
2022-08-29T08:39:27.854Z,99.99
2022-08-29T08:40:28.179Z,99.99
2022-08-29T08:41:32.383Z,99.99
2022-08-29T08:42:30.218Z,99.99
2022-08-29T08:43:32.470Z,99.99
2022-08-29T08:44:30.681Z,99.99
2022-08-29T08:45:31.706Z,99.99
2022-08-29T08:46:32.277Z,99.99
2022-08-29T08:47:33.550Z,99.99
2022-08-29T08:48:33.513Z,99.99
2022-08-29T08:49:34.429Z,99.99
2022-08-29T08:50:34.349Z,99.99
2022-08-29T08:51:35.578Z,99.99
2022-08-29T08:52:36.509Z,99.99
2022-08-29T08:53:36.810Z,99.99
2022-08-29T08:54:37.450Z,99.99
2022-08-29T08:55:38.489Z,99.99
2022-08-29T08:56:38.690Z,99.99
2022-08-29T08:57:39.631Z,99.99
2022-08-29T08:58:40.536Z,99.99
2022-08-29T08:59:40.462Z,99.99
2022-08-29T09:00:41.390Z,99.99
2022-08-29T09:01:42.010Z,99.99
2022-08-29T09:02:42.622Z,99.99
2022-08-29T09:03:43.141Z,99.99
2022-08-29T09:04:43.369Z,99.99
2022-08-29T09:05:48.622Z,99.99
2022-08-29T09:06:44.948Z,99.99
2022-08-29T09:07:45.176Z,98.73
2022-08-29T09:08:46.108Z,94.47
2022-08-29T09:09:46.644Z,92.14
2022-08-29T09:10:46.851Z,88.99
2022-08-29T09:11:48.180Z,85.54
2022-08-29T09:12:49.142Z,84.07
2022-08-29T09:13:48.599Z,84.5
2022-08-29T09:14:48.513Z,81.28
2022-08-29T09:15:49.603Z,81.12
2022-08-29T09:16:49.880Z,79.76
2022-08-29T09:17:50.355Z,78.83
2022-08-29T09:18:59.716Z,75.01
2022-08-29T09:19:50.943Z,73.88
2022-08-29T09:20:52.057Z,71.47
2022-08-29T09:21:52.818Z,71.08
2022-08-29T09:22:53.477Z,71.08
2022-08-29T09:23:53.811Z,71.83
2022-08-29T09:24:54.336Z,73.88
2022-08-29T09:25:54.347Z,73.78
2022-08-29T09:26:55.355Z,72.22
2022-08-29T09:27:55.871Z,70.6
2022-08-29T09:28:56.093Z,70.7
2022-08-29T09:29:56.803Z,71.54
2022-08-29T09:30:57.722Z,72.77
2022-08-29T09:31:59.466Z,72.09
2022-08-29T09:32:59.599Z,70.07
2022-08-29T09:34:00.167Z,70.17
2022-08-29T09:35:13.962Z,68.19
2022-08-29T09:36:02.268Z,68.81
2022-08-29T09:37:02.513Z,68.65
2022-08-29T09:38:03.164Z,68.16
2022-08-29T09:39:04.411Z,68.88
2022-08-29T09:40:04.798Z,68.78
2022-08-29T09:41:05.108Z,66.93
2022-08-29T09:42:06.041Z,66.24
2022-08-29T09:43:06.981Z,67.12
2022-08-29T09:44:07.941Z,68.16
2022-08-29T09:45:08.172Z,70.02
2022-08-29T09:46:08.750Z,71.96
2022-08-29T09:47:09.365Z,72.12
2022-08-29T09:48:09.678Z,73.06
2022-08-29T09:49:09.909Z,73.19
2022-08-29T09:50:09.857Z,72.31
2022-08-29T09:51:10.790Z,72.71
2022-08-29T09:52:11.749Z,71.54
2022-08-29T09:53:29.828Z,70.21
2022-08-29T09:54:13.481Z,69.07
2022-08-29T09:55:14.437Z,66.24
2022-08-29T09:56:34.356Z,65.36
2022-08-29T09:57:35.006Z,65.43
2022-08-29T09:58:39.660Z,65.82
2022-08-29T09:59:39.730Z,67.15
2022-08-29T10:00:36.592Z,67.93
2022-08-29T10:01:41.839Z,69.75
2022-08-29T10:02:37.769Z,70.33
2022-08-29T10:03:38.519Z,71.31
2022-08-29T10:04:39.203Z,70.33
2022-08-29T10:05:39.713Z,70.62
2022-08-29T10:06:45.366Z,70.86
2022-08-29T10:07:42.872Z,70.6
2022-08-29T10:08:41.546Z,68.59
2022-08-29T10:09:42.483Z,69.49
2022-08-29T10:10:43.297Z,68.42
2022-08-29T10:11:43.822Z,67.09
2022-08-29T10:12:44.618Z,67.29
2022-08-29T10:13:45.238Z,66.05
2022-08-29T10:14:55.348Z,67.02
2022-08-29T10:15:55.944Z,65.85
2022-08-29T10:16:47.961Z,65.95
2022-08-29T10:17:48.466Z,65.26
2022-08-29T10:18:49.310Z,64.71
2022-08-29T10:19:49.828Z,64.42
2022-08-29T10:20:50.570Z,63.96
2022-08-29T10:21:50.806Z,64.97
2022-08-29T10:22:51.924Z,64.18
2022-08-29T10:23:52.755Z,63.89
2022-08-29T10:24:52.974Z,62.98
2022-08-29T10:25:53.915Z,64.61
2022-08-29T10:26:54.944Z,65.2
2022-08-29T10:27:55.203Z,66.44
2022-08-29T10:28:57.175Z,66.41
2022-08-29T10:29:56.389Z,67.05
2022-08-29T10:30:56.626Z,68.06
2022-08-29T10:31:57.487Z,69.1
2022-08-29T10:32:57.697Z,70.4
2022-08-29T10:33:58.403Z,71.08
2022-08-29T10:34:59.334Z,69.81
2022-08-29T10:36:00.339Z,70.2
2022-08-29T10:37:01.037Z,71.41
2022-08-29T10:38:02.302Z,69.98
2022-08-29T10:39:02.814Z,68.8
2022-08-29T10:40:02.913Z,70.5
2022-08-29T10:41:05.104Z,68.59
2022-08-29T10:42:04.318Z,67.12
2022-08-29T10:43:04.973Z,67.25
2022-08-29T10:44:05.448Z,69.3
2022-08-29T10:45:05.978Z,68.91
2022-08-29T10:46:07.083Z,65.82
2022-08-29T10:47:07.233Z,68.07
2022-08-29T10:48:08.191Z,65.04
2022-08-29T10:49:08.872Z,65.1
2022-08-29T10:50:16.847Z,65.95
2022-08-29T10:51:09.643Z,67.28
2022-08-29T10:52:10.344Z,68.8
2022-08-29T10:53:10.982Z,68.9
2022-08-29T10:54:11.642Z,70.27
2022-08-29T10:55:12.299Z,69.92
2022-08-29T10:56:13.518Z,68.84
2022-08-29T10:57:14.518Z,67.08
2022-08-29T10:58:18.302Z,69.07
2022-08-29T10:59:15.534Z,69.95
2022-08-29T11:00:15.464Z,69.17
2022-08-29T11:01:16.867Z,68.52
2022-08-29T11:02:17.349Z,65.59
2022-08-29T11:03:17.290Z,66.56
2022-08-29T11:04:18.401Z,66.83
2022-08-29T11:05:18.702Z,67.08
2022-08-29T11:06:22.555Z,68.32
2022-08-29T11:07:19.764Z,71.54
2022-08-29T11:08:22.010Z,73
2022-08-29T11:09:21.238Z,70.56
2022-08-29T11:10:21.899Z,70.47
2022-08-29T11:11:21.963Z,70.11
2022-08-29T11:12:23.510Z,71.08
2022-08-29T11:13:23.425Z,69.46
2022-08-29T11:14:24.657Z,68.77
2022-08-29T11:15:24.918Z,68.87
2022-08-29T11:16:25.229Z,71.8
2022-08-29T11:17:25.656Z,69.46
2022-08-29T11:18:28.077Z,68.97
2022-08-29T11:19:28.258Z,67.32
2022-08-29T11:20:27.494Z,67.12
2022-08-29T11:21:29.259Z,68.42
2022-08-29T11:22:28.447Z,68.68
2022-08-29T11:23:29.386Z,69.84
2022-08-29T11:24:34.312Z,69.75
2022-08-29T11:25:32.692Z,71.31
2022-08-29T11:26:30.914Z,72.22
2022-08-29T11:27:31.072Z,69.78
2022-08-29T11:28:31.377Z,69
2022-08-29T11:29:32.576Z,68.97
2022-08-29T11:30:37.505Z,71.01
2022-08-29T11:31:34.808Z,70.43
2022-08-29T11:32:38.679Z,72.38
2022-08-29T11:33:35.619Z,71.73
2022-08-29T11:34:36.092Z,71.05
2022-08-29T11:35:37.057Z,69.1
2022-08-29T11:36:37.407Z,68.84
2022-08-29T11:37:37.692Z,69.43
2022-08-29T11:38:38.760Z,70.11
2022-08-29T11:39:39.675Z,67.86
2022-08-29T11:41:26.822Z,68.26
2022-08-29T11:41:46.291Z,68.74
2022-08-29T11:43:02.198Z,71.27
2022-08-29T11:43:47.097Z,72.17
2022-08-29T11:44:47.746Z,73.11
2022-08-29T11:45:47.680Z,74.28
2022-08-29T11:46:49.109Z,73.79
2022-08-29T11:47:48.401Z,74.96
2022-08-29T11:48:48.216Z,74.38
2022-08-29T11:49:48.633Z,73.66
2022-08-29T11:50:48.974Z,74.18
2022-08-29T11:51:49.762Z,73.3
2022-08-29T11:52:49.998Z,72.47
2022-08-29T11:53:50.636Z,72.37
2022-08-29T11:54:51.576Z,73.73
2022-08-29T11:55:52.812Z,74.38
2022-08-29T11:56:53.452Z,73.99
2022-08-29T11:57:54.286Z,74.24
2022-08-29T11:58:54.753Z,73.37
2022-08-29T11:59:54.964Z,74.73
2022-08-29T12:00:55.176Z,74.86
2022-08-29T12:01:55.650Z,72.53
2022-08-29T12:02:55.759Z,71.26
2022-08-29T12:03:56.559Z,73.46
2022-08-29T12:04:57.293Z,74.08
2022-08-29T12:05:58.243Z,73.89
2022-08-29T12:07:00.048Z,73.3
2022-08-29T12:08:02.863Z,73.6
2022-08-29T12:09:04.157Z,73.4
2022-08-29T12:10:00.540Z,74.67
2022-08-29T12:11:01.475Z,74.86
2022-08-29T12:12:01.729Z,74.18
2022-08-29T12:13:01.907Z,73.3
2022-08-29T12:14:03.597Z,74.86
2022-08-29T12:15:03.487Z,75.45
2022-08-29T12:16:03.934Z,74.71
2022-08-29T12:17:04.317Z,72.66
2022-08-29T12:18:19.605Z,71.3
2022-08-29T12:19:19.989Z,71.88
2022-08-29T12:20:20.497Z,71.94
2022-08-29T12:21:20.716Z,71.85
2022-08-29T12:22:28.050Z,72.24
2022-08-29T12:23:22.736Z,72.92
2022-08-29T12:24:22.716Z,73.56
2022-08-29T12:25:23.761Z,74.79
2022-08-29T12:26:28.722Z,74.6
2022-08-29T12:27:25.639Z,75.24
2022-08-29T12:28:25.587Z,74.75
2022-08-29T12:29:25.787Z,74.37
2022-08-29T12:30:26.274Z,75.34
2022-08-29T12:31:27.374Z,76.4
2022-08-29T12:32:34.925Z,78.83
2022-08-29T12:33:29.114Z,79.64
2022-08-29T12:34:29.292Z,76.15
2022-08-29T12:35:30.071Z,74.63
2022-08-29T12:36:30.568Z,72.49
2022-08-29T12:37:31.523Z,73.27
2022-08-29T12:38:31.690Z,72.69
2022-08-29T12:39:31.701Z,72.59
2022-08-29T12:40:32.823Z,71.56
2022-08-29T12:41:33.178Z,70.81
2022-08-29T12:42:33.782Z,69.9
2022-08-29T12:43:34.503Z,71.33
2022-08-29T12:44:35.759Z,75.99
2022-08-29T12:45:36.232Z,74.76
2022-08-29T12:46:36.995Z,73.99
2022-08-29T12:47:40.941Z,72.04
2022-08-29T12:48:38.682Z,70.72
2022-08-29T12:49:39.659Z,69.35
2022-08-29T12:50:39.995Z,69.94
2022-08-29T12:51:40.632Z,68.71
2022-08-29T12:52:41.563Z,68.48
2022-08-29T12:53:42.072Z,69.61
2022-08-29T12:54:45.860Z,70.58
2022-08-29T12:55:43.561Z,70.84
2022-08-29T12:56:44.169Z,71.23
2022-08-29T12:57:44.681Z,74.96
2022-08-29T12:58:44.982Z,73.08
2022-08-29T12:59:45.890Z,70.78
2022-08-29T13:00:47.001Z,70.87
2022-08-29T13:01:47.175Z,69.45
2022-08-29T13:02:48.197Z,70.52
2022-08-29T13:03:48.658Z,69.97
2022-08-29T13:04:49.946Z,70.85
2022-08-29T13:05:50.938Z,70.07
2022-08-29T13:06:51.305Z,71.56
2022-08-29T13:07:51.673Z,71.01
2022-08-29T13:08:52.508Z,71.5
2022-08-29T13:09:53.274Z,67.9